Time;durP1;ratioP1;P1;durP2;ratioP2;P2;SDS_P1;SDS_P2;PMS_P1;PMS_P2;Temp;Humidity;BMP_temperature;BMP_pressure;BME280_temperature;BME280_humidity;BME280_pressure;Samples;Min_cycle;Max_cycle;Signal;HPM_P1;HPM_P2
2022/01/02 00:00:19;;;;;;;25.30;15.23;;;11.40;99.90;;;;;;5062990;28;20211;-47
2022/01/02 00:02:50;;;;;;;29.70;16.52;;;11.60;99.90;;;;;;5061269;28;20232;-47
2022/01/02 00:05:21;;;;;;;33.22;20.27;;;11.50;99.90;;;;;;5062904;28;20342;-48
2022/01/02 00:08:07;;;;;;;23.05;16.58;;;11.50;99.90;;;;;;5062594;28;20248;-53
2022/01/02 00:10:39;;;;;;;21.20;16.05;;;11.40;99.90;;;;;;5063004;28;20211;-47
2022/01/02 00:13:12;;;;;;;28.58;17.67;;;11.40;99.90;;;;;;5062452;28;20221;-50
2022/01/02 00:15:40;;;;;;;22.50;15.30;;;11.30;99.90;;;;;;5063256;28;20237;-48
2022/01/02 00:18:11;;;;;;;23.98;16.58;;;11.40;99.90;;;;;;5062649;28;20574;-49
2022/01/02 00:20:49;;;;;;;25.30;17.27;;;11.50;99.90;;;;;;5062554;28;20256;-51
2022/01/02 00:23:23;;;;;;;23.38;15.30;;;11.40;99.90;;;;;;5062730;28;20221;-50
2022/01/02 00:25:55;;;;;;;27.27;16.75;;;11.00;99.90;;;;;;5061982;28;20780;-47
2022/01/02 00:28:22;;;;;;;22.98;17.33;;;11.00;99.90;;;;;;5062445;28;20665;-49
2022/01/02 00:30:50;;;;;;;22.27;15.57;;;11.20;99.90;;;;;;5062397;28;20434;-52
2022/01/02 00:33:19;;;;;;;23.00;15.85;;;11.00;99.90;;;;;;5061989;28;20264;-50
2022/01/02 00:35:47;;;;;;;28.88;16.77;;;11.30;99.90;;;;;;5062118;28;20365;-51
2022/01/02 00:38:21;;;;;;;24.05;15.70;;;11.40;99.90;;;;;;5061791;28;20210;-50
2022/01/02 00:40:53;;;;;;;24.80;15.70;;;11.30;99.90;;;;;;5060983;28;20414;-49
2022/01/02 00:43:28;;;;;;;26.42;18.02;;;11.20;99.90;;;;;;5061870;28;20283;-49
2022/01/02 00:45:57;;;;;;;26.50;16.63;;;11.10;99.90;;;;;;5066043;28;20207;-57
2022/01/02 00:48:29;;;;;;;24.02;17.08;;;10.80;99.90;;;;;;5075152;28;20213;-54
2022/01/02 00:51:02;;;;;;;19.80;15.10;;;10.70;99.90;;;;;;5062583;28;20205;-49
2022/01/02 00:53:34;;;;;;;25.00;15.27;;;10.40;99.90;;;;;;5061983;28;20272;-49
2022/01/02 00:56:05;;;;;;;24.38;14.98;;;10.10;99.90;;;;;;5061673;28;20252;-49
2022/01/02 00:58:48;;;;;;;21.15;16.27;;;10.00;99.90;;;;;;5062106;28;20229;-49
2022/01/02 01:01:26;;;;;;;21.48;15.55;;;9.90;99.90;;;;;;5061734;28;20200;-48
2022/01/02 01:03:54;;;;;;;22.55;14.40;;;9.90;99.90;;;;;;5063819;28;20206;-47
2022/01/02 01:06:30;;;;;;;23.98;15.25;;;10.00;99.90;;;;;;5063446;28;20258;-53
2022/01/02 01:09:01;;;;;;;22.67;14.45;;;10.10;99.90;;;;;;5063304;28;20224;-49
2022/01/02 01:11:29;;;;;;;26.98;16.55;;;10.00;99.90;;;;;;5063189;28;20419;-49
2022/01/02 01:13:58;;;;;;;24.75;17.60;;;9.80;99.90;;;;;;5062068;28;20201;-47
2022/01/02 01:16:26;;;;;;;30.50;17.88;;;9.90;99.90;;;;;;5061806;28;20207;-51
2022/01/02 01:18:54;;;;;;;26.13;17.58;;;9.80;99.90;;;;;;5061455;28;20209;-46
2022/01/02 01:21:21;;;;;;;39.22;17.65;;;9.70;99.90;;;;;;5061356;28;20207;-50
2022/01/02 01:23:48;;;;;;;26.65;15.80;;;9.80;99.90;;;;;;5061224;28;20223;-48
2022/01/02 01:26:17;;;;;;;26.67;16.42;;;9.70;99.90;;;;;;5060851;28;20200;-49
2022/01/02 01:28:45;;;;;;;25.55;16.33;;;9.60;99.90;;;;;;5061518;28;20231;-51
2022/01/02 01:31:12;;;;;;;25.13;17.10;;;9.60;99.90;;;;;;5062068;28;20198;-49
2022/01/02 01:33:39;;;;;;;27.15;17.33;;;9.70;99.90;;;;;;5062231;28;20289;-50
2022/01/02 01:36:07;;;;;;;27.20;16.40;;;9.50;99.90;;;;;;5064253;28;20191;-52
2022/01/02 01:38:34;;;;;;;28.60;17.75;;;9.40;99.90;;;;;;5067209;28;20205;-48
2022/01/02 01:41:17;;;;;;;27.92;16.60;;;9.50;99.90;;;;;;5068074;28;20202;-52
2022/01/02 01:44:05;;;;;;;22.65;15.85;;;9.50;99.90;;;;;;5070950;28;20223;-50
2022/01/02 01:46:32;;;;;;;26.10;16.27;;;9.60;99.90;;;;;;5071626;28;20208;-52
2022/01/02 01:48:59;;;;;;;20.85;16.33;;;9.60;99.90;;;;;;5060567;28;20218;-51
2022/01/02 01:51:27;;;;;;;27.88;15.05;;;9.60;99.90;;;;;;5061224;28;20232;-48
2022/01/02 01:53:54;;;;;;;25.05;14.60;;;9.60;99.90;;;;;;5060640;28;20524;-49
2022/01/02 01:56:21;;;;;;;22.15;15.13;;;9.60;99.90;;;;;;5060967;28;20197;-47
2022/01/02 01:58:48;;;;;;;22.05;15.73;;;9.60;99.90;;;;;;5060861;28;20246;-49
2022/01/02 02:01:16;;;;;;;25.13;16.52;;;9.50;99.90;;;;;;5061218;28;20200;-51
2022/01/02 02:03:43;;;;;;;27.30;16.25;;;9.20;99.90;;;;;;5061582;28;20279;-47
2022/01/02 02:06:11;;;;;;;26.60;16.77;;;8.90;99.90;;;;;;5060831;28;20564;-49
2022/01/02 02:08:38;;;;;;;19.50;15.07;;;8.80;99.90;;;;;;5059367;28;20227;-46
2022/01/02 02:11:05;;;;;;;27.50;15.65;;;8.70;99.90;;;;;;5059751;28;20207;-53
2022/01/02 02:13:33;;;;;;;27.38;16.80;;;8.70;99.90;;;;;;5060043;28;20530;-46
2022/01/02 02:16:02;;;;;;;28.27;15.30;;;8.70;99.90;;;;;;5059806;28;20196;-50
2022/01/02 02:18:30;;;;;;;28.13;17.25;;;8.70;99.90;;;;;;5060442;28;20526;-48
2022/01/02 02:20:57;;;;;;;23.42;15.63;;;8.70;99.90;;;;;;5060325;28;20205;-51
2022/01/02 02:23:24;;;;;;;24.67;14.20;;;8.70;99.90;;;;;;5058911;28;20269;-47
2022/01/02 02:25:51;;;;;;;24.17;14.25;;;8.90;99.90;;;;;;5062992;28;20204;-52
2022/01/02 02:28:19;;;;;;;17.35;13.77;;;9.00;99.90;;;;;;5076063;28;20234;-51
2022/01/02 02:30:47;;;;;;;29.15;15.18;;;8.90;99.90;;;;;;5067628;28;20276;-50
2022/01/02 02:33:16;;;;;;;24.83;13.73;;;8.90;99.90;;;;;;5064107;28;20729;-47
2022/01/02 02:35:44;;;;;;;24.70;15.15;;;8.90;99.90;;;;;;5064488;28;20221;-50
2022/01/02 02:38:12;;;;;;;27.73;13.93;;;8.80;99.90;;;;;;5064009;28;20199;-48
2022/01/02 02:40:40;;;;;;;28.33;15.27;;;8.70;99.90;;;;;;5064360;28;20433;-50
2022/01/02 02:52:01;;;;;;;20.65;13.77;;;8.20;99.90;;;;;;5064382;28;20199;-50
2022/01/02 02:54:31;;;;;;;18.92;13.07;;;8.20;99.90;;;;;;5064414;28;20210;-48
2022/01/02 02:57:01;;;;;;;20.15;12.35;;;8.30;99.90;;;;;;5064436;28;20203;-49
2022/01/02 02:59:32;;;;;;;25.25;13.77;;;8.20;99.90;;;;;;5064513;28;20214;-49
2022/01/02 03:02:00;;;;;;;18.55;10.63;;;8.40;99.90;;;;;;5064683;28;20258;-48
2022/01/02 03:04:28;;;;;;;16.30;12.88;;;8.20;99.90;;;;;;5064681;28;20199;-46
2022/01/02 03:06:55;;;;;;;19.13;12.48;;;8.10;99.90;;;;;;5064040;28;20203;-49
2022/01/02 03:12:19;;;;;;;17.90;11.43;;;8.00;99.90;;;;;;5051250;28;20254;-51
2022/01/02 03:14:46;;;;;;;11.73;8.55;;;8.00;99.90;;;;;;5064547;28;20196;-47
2022/01/02 03:17:14;;;;;;;14.30;9.27;;;8.00;99.90;;;;;;5049402;28;20445;-48
2022/01/02 03:19:41;;;;;;;13.77;8.75;;;7.90;99.90;;;;;;5063552;28;20191;-47
2022/01/02 03:22:10;;;;;;;14.90;8.10;;;8.00;99.90;;;;;;5063342;28;20601;-47
2022/01/02 03:24:37;;;;;;;11.13;7.65;;;7.90;99.90;;;;;;5063504;28;20437;-45
2022/01/02 03:27:04;;;;;;;13.05;7.93;;;7.90;99.90;;;;;;5063190;28;20210;-51
2022/01/02 03:29:31;;;;;;;15.57;9.52;;;7.90;99.90;;;;;;5063519;28;20223;-50
2022/01/02 03:31:59;;;;;;;12.52;9.07;;;8.00;99.90;;;;;;5063430;28;20261;-51
2022/01/02 03:34:26;;;;;;;11.63;7.38;;;7.90;99.90;;;;;;5063148;28;20191;-46
2022/01/02 03:36:54;;;;;;;10.50;7.47;;;7.80;99.90;;;;;;5062994;28;20203;-51
2022/01/02 03:39:21;;;;;;;13.38;8.38;;;7.80;99.90;;;;;;5062626;28;20210;-47
2022/01/02 03:41:49;;;;;;;13.05;8.18;;;7.80;99.90;;;;;;5063041;28;20266;-48
2022/01/02 03:44:16;;;;;;;14.30;8.95;;;7.80;99.90;;;;;;5061872;28;20199;-48
2022/01/02 03:46:44;;;;;;;13.45;8.20;;;7.80;99.90;;;;;;5063295;28;20683;-47
2022/01/02 03:49:11;;;;;;;10.10;8.27;;;7.70;99.90;;;;;;5062446;28;20215;-49
2022/01/02 03:51:39;;;;;;;13.18;7.05;;;7.70;99.90;;;;;;5062988;28;20269;-48
2022/01/02 03:54:06;;;;;;;11.18;9.45;;;7.70;99.90;;;;;;5062900;28;20199;-50
2022/01/02 03:56:33;;;;;;;14.10;8.88;;;7.60;99.90;;;;;;5062763;28;20222;-51
2022/01/02 03:59:00;;;;;;;10.75;8.40;;;7.50;99.90;;;;;;5063268;28;20199;-48
2022/01/02 04:01:27;;;;;;;12.77;8.65;;;7.50;99.90;;;;;;5062732;28;20246;-51
2022/01/02 04:03:54;;;;;;;10.48;8.15;;;7.60;99.90;;;;;;5063025;28;20207;-49
2022/01/02 04:06:22;;;;;;;15.13;10.02;;;7.50;99.90;;;;;;5062541;28;20214;-48
2022/01/02 04:08:50;;;;;;;17.20;9.75;;;7.50;99.90;;;;;;5074156;28;20223;-52
2022/01/02 04:11:17;;;;;;;21.92;9.75;;;7.50;99.90;;;;;;5069991;28;20248;-48
2022/01/02 04:13:44;;;;;;;12.77;9.75;;;7.50;99.90;;;;;;5062681;28;20237;-53
2022/01/02 04:16:12;;;;;;;12.93;9.07;;;7.50;99.90;;;;;;5062293;28;20191;-47
2022/01/02 04:18:39;;;;;;;22.35;10.02;;;7.50;99.90;;;;;;5062625;28;20456;-49
2022/01/02 04:21:06;;;;;;;12.07;8.18;;;7.60;99.90;;;;;;5063478;28;20560;-46
2022/01/02 04:23:33;;;;;;;14.70;9.80;;;7.50;99.90;;;;;;5062326;28;20284;-48
2022/01/02 04:26:00;;;;;;;13.05;9.98;;;7.60;99.90;;;;;;5062775;28;20429;-47
2022/01/02 04:28:27;;;;;;;14.32;9.45;;;7.60;99.90;;;;;;5062106;28;20258;-50
2022/01/02 04:30:55;;;;;;;12.35;9.25;;;7.60;99.90;;;;;;5062363;28;20530;-48
2022/01/02 04:33:22;;;;;;;11.38;10.02;;;7.60;99.90;;;;;;5062220;28;20242;-47
2022/01/02 04:35:49;;;;;;;14.13;10.02;;;7.60;99.90;;;;;;5061939;28;20514;-51
2022/01/02 04:38:17;;;;;;;11.55;9.25;;;7.70;99.90;;;;;;5061794;28;20199;-49
2022/01/02 04:40:44;;;;;;;11.45;8.23;;;7.70;99.90;;;;;;5062169;28;20199;-50
2022/01/02 04:43:12;;;;;;;12.35;8.88;;;7.80;99.90;;;;;;5062088;28;20215;-48
2022/01/02 04:45:39;;;;;;;14.85;9.60;;;7.70;99.90;;;;;;5062040;28;20200;-51
2022/01/02 04:48:06;;;;;;;10.70;9.10;;;7.70;99.90;;;;;;5060930;28;20219;-50
2022/01/02 04:50:33;;;;;;;9.30;8.10;;;7.70;99.90;;;;;;5062183;28;20241;-50
2022/01/02 04:53:01;;;;;;;12.48;9.88;;;7.80;99.90;;;;;;5063039;28;20261;-45
2022/01/02 04:55:28;;;;;;;14.07;9.05;;;7.70;99.90;;;;;;5063610;28;20195;-48
2022/01/02 04:57:55;;;;;;;13.50;8.35;;;7.70;99.90;;;;;;5064255;28;20199;-49
2022/01/02 05:00:22;;;;;;;8.93;7.80;;;7.60;99.90;;;;;;5064234;28;20196;-50
2022/01/02 05:02:50;;;;;;;10.13;7.55;;;7.70;99.90;;;;;;5062638;28;20241;-50
2022/01/02 05:05:17;;;;;;;11.63;8.27;;;7.80;99.90;;;;;;5061719;28;20219;-46
2022/01/02 05:07:45;;;;;;;15.77;9.30;;;8.10;99.90;;;;;;5061123;28;20199;-48
2022/01/02 05:10:13;;;;;;;12.77;9.35;;;8.20;99.90;;;;;;5061658;28;20195;-47
2022/01/02 05:12:40;;;;;;;12.65;9.07;;;8.40;99.90;;;;;;5061341;28;20223;-46
2022/01/02 05:15:08;;;;;;;17.13;8.52;;;8.40;99.90;;;;;;5061428;28;20195;-49
2022/01/02 05:17:35;;;;;;;12.05;9.23;;;8.20;99.90;;;;;;5061038;28;20446;-50
2022/01/02 05:20:04;;;;;;;16.90;9.45;;;8.10;99.90;;;;;;5061413;28;20390;-45
2022/01/02 05:22:31;;;;;;;9.73;8.68;;;8.30;99.90;;;;;;5061217;28;20537;-50
2022/01/02 05:24:58;;;;;;;11.27;9.23;;;8.00;99.90;;;;;;5061338;28;20237;-49
2022/01/02 05:27:26;;;;;;;11.75;8.82;;;7.90;99.90;;;;;;5061086;28;20204;-49
2022/01/02 05:29:53;;;;;;;13.07;8.45;;;8.00;99.90;;;;;;5060862;28;20223;-48
2022/01/02 05:32:21;;;;;;;9.55;8.55;;;8.10;99.90;;;;;;5061414;28;20219;-47
2022/01/02 05:34:48;;;;;;;11.27;7.43;;;8.10;99.90;;;;;;5060932;28;20445;-48
2022/01/02 05:37:15;;;;;;;11.68;7.30;;;8.00;99.90;;;;;;5060824;28;20195;-50
2022/01/02 05:39:42;;;;;;;11.40;7.25;;;8.10;99.90;;;;;;5060751;28;20203;-48
2022/01/02 05:42:10;;;;;;;11.30;7.47;;;8.10;99.90;;;;;;5060992;28;20537;-46
2022/01/02 05:44:37;;;;;;;11.52;8.30;;;8.00;99.90;;;;;;5061151;28;20421;-50
2022/01/02 05:47:04;;;;;;;10.45;8.32;;;7.90;99.90;;;;;;5061687;28;20200;-46
2022/01/02 05:49:38;;;;;;;13.13;8.93;;;7.90;99.90;;;;;;5069319;28;20215;-48
2022/01/02 05:52:05;;;;;;;10.27;7.70;;;7.90;99.90;;;;;;5067600;28;20227;-46
2022/01/02 05:54:32;;;;;;;10.75;7.93;;;8.20;99.90;;;;;;5062756;28;20505;-52
2022/01/02 05:56:59;;;;;;;13.00;9.30;;;8.10;99.90;;;;;;5062036;28;20222;-49
2022/01/02 05:59:26;;;;;;;17.27;7.72;;;8.40;99.90;;;;;;5061946;28;20203;-52
2022/01/02 06:01:54;;;;;;;14.50;8.68;;;8.20;99.90;;;;;;5063546;28;20232;-49
2022/01/02 06:04:21;;;;;;;12.57;7.45;;;8.10;99.90;;;;;;5062663;28;20199;-49
2022/01/02 06:06:48;;;;;;;9.45;7.05;;;8.00;99.90;;;;;;5061895;28;20239;-49
2022/01/02 06:09:16;;;;;;;8.77;6.80;;;8.00;99.90;;;;;;5061559;28;20261;-50
2022/01/02 06:11:42;;;;;;;9.02;7.00;;;7.90;99.90;;;;;;5060636;28;20227;-50
2022/01/02 06:14:10;;;;;;;14.70;9.00;;;7.80;99.90;;;;;;5061033;28;20508;-50
2022/01/02 06:16:37;;;;;;;11.38;7.45;;;7.80;99.90;;;;;;5060638;28;20187;-50
2022/01/02 06:19:04;;;;;;;8.48;7.50;;;7.70;99.90;;;;;;5060366;28;20207;-48
2022/01/02 06:21:31;;;;;;;14.35;7.53;;;7.70;99.90;;;;;;5060484;28;20199;-54
2022/01/02 06:23:59;;;;;;;10.77;6.03;;;7.80;99.90;;;;;;5060218;28;20399;-46
2022/01/02 06:26:26;;;;;;;9.13;7.60;;;7.70;99.90;;;;;;5060323;28;20207;-49
2022/01/02 06:28:54;;;;;;;9.98;7.60;;;7.80;99.90;;;;;;5060190;28;20281;-52
2022/01/02 06:31:21;;;;;;;12.15;7.30;;;7.70;99.90;;;;;;5060509;28;20242;-47
2022/01/02 06:33:48;;;;;;;11.27;7.53;;;7.60;99.90;;;;;;5060432;28;20195;-48
2022/01/02 06:36:15;;;;;;;9.35;6.78;;;7.80;99.90;;;;;;5060289;28;20203;-48
2022/01/02 06:38:43;;;;;;;15.73;7.78;;;7.70;99.90;;;;;;5060048;28;20269;-53
2022/01/02 06:41:12;;;;;;;9.93;7.57;;;7.60;99.90;;;;;;5060337;28;20200;-49
2022/01/02 06:43:40;;;;;;;11.15;6.50;;;7.70;99.90;;;;;;5060315;28;20257;-50
2022/01/02 06:46:07;;;;;;;10.98;6.93;;;7.80;99.90;;;;;;5060364;28;20199;-52
2022/01/02 06:48:36;;;;;;;10.90;7.35;;;7.70;99.90;;;;;;5060828;28;20242;-46
2022/01/02 06:51:03;;;;;;;8.77;6.05;;;7.90;99.90;;;;;;5060156;28;20196;-49
2022/01/02 06:53:30;;;;;;;10.20;7.05;;;7.90;99.90;;;;;;5061517;28;20223;-49
2022/01/02 06:55:58;;;;;;;10.07;6.70;;;7.80;99.90;;;;;;5061153;28;20214;-48
2022/01/02 06:58:25;;;;;;;13.32;7.55;;;7.60;99.90;;;;;;5061227;28;20199;-50
2022/01/02 07:00:52;;;;;;;11.32;7.22;;;7.60;99.90;;;;;;5061629;28;20195;-45
2022/01/02 07:03:19;;;;;;;9.65;7.50;;;7.50;99.90;;;;;;5063056;28;20231;-46
2022/01/02 07:05:47;;;;;;;10.77;8.15;;;7.70;99.90;;;;;;5062498;28;20203;-55
2022/01/02 07:08:14;;;;;;;9.25;8.27;;;7.80;99.90;;;;;;5061562;28;20203;-50
2022/01/02 07:10:42;;;;;;;9.18;7.55;;;8.00;99.90;;;;;;5062269;28;20203;-50
2022/01/02 07:13:09;;;;;;;10.27;8.73;;;8.00;99.90;;;;;;5065406;28;20216;-52
2022/01/02 07:15:36;;;;;;;12.25;7.60;;;8.00;99.90;;;;;;5065448;28;20548;-47
2022/01/02 07:18:03;;;;;;;11.82;9.05;;;8.20;99.90;;;;;;5064092;28;20424;-48
2022/01/02 07:20:31;;;;;;;9.80;6.68;;;8.20;99.90;;;;;;5064916;28;20502;-47
2022/01/02 07:22:58;;;;;;;12.85;8.18;;;7.90;99.90;;;;;;5064250;28;20676;-48
2022/01/02 07:25:25;;;;;;;9.30;7.43;;;7.80;99.90;;;;;;5065377;28;20245;-52
2022/01/02 07:27:52;;;;;;;13.00;8.68;;;7.50;99.90;;;;;;5066432;28;20245;-49
2022/01/02 07:30:20;;;;;;;13.65;8.73;;;7.40;99.90;;;;;;5071016;28;20257;-52
2022/01/02 07:32:47;;;;;;;10.55;7.93;;;7.40;99.90;;;;;;5072348;28;20247;-52
2022/01/02 07:35:14;;;;;;;15.65;10.02;;;7.50;99.90;;;;;;5067850;28;20225;-47
2022/01/02 07:37:41;;;;;;;11.52;7.82;;;7.80;99.90;;;;;;5066581;28;20207;-51
2022/01/02 07:40:09;;;;;;;9.48;7.53;;;8.00;99.90;;;;;;5063681;28;20200;-49
2022/01/02 07:42:36;;;;;;;18.45;9.15;;;8.10;99.90;;;;;;5063480;28;20273;-50
2022/01/02 07:45:04;;;;;;;12.55;7.68;;;8.30;99.90;;;;;;5063228;28;20337;-51
2022/01/02 07:47:31;;;;;;;11.60;8.52;;;8.40;99.90;;;;;;5063153;28;20478;-47
2022/01/02 07:49:59;;;;;;;9.48;7.25;;;8.50;99.90;;;;;;5063048;28;20277;-49
2022/01/02 07:52:26;;;;;;;11.88;9.15;;;8.80;99.90;;;;;;5063150;28;20223;-48
2022/01/02 07:54:53;;;;;;;12.77;9.55;;;9.00;99.90;;;;;;5063284;28;20242;-50
2022/01/02 07:57:20;;;;;;;9.95;7.35;;;8.80;99.90;;;;;;5061570;28;20196;-48
2022/01/02 07:59:47;;;;;;;8.77;6.55;;;9.10;99.90;;;;;;5062767;28;20222;-48
2022/01/02 08:02:34;;;;;;;9.77;6.70;;;8.90;99.90;;;;;;5062780;28;20219;-49
2022/01/02 08:05:01;;;;;;;6.63;5.93;;;8.90;99.90;;;;;;5058958;28;20263;-48
2022/01/02 08:07:28;;;;;;;6.32;5.03;;;9.20;99.90;;;;;;5054222;28;20250;-48
2022/01/02 08:09:55;;;;;;;12.77;6.32;;;9.50;99.90;;;;;;5056968;28;20530;-51
2022/01/02 08:12:22;;;;;;;14.60;6.45;;;9.50;99.90;;;;;;5054209;28;20216;-48
2022/01/02 08:14:50;;;;;;;8.50;6.22;;;9.70;99.90;;;;;;5056167;28;20262;-49
2022/01/02 08:17:18;;;;;;;8.25;5.72;;;9.70;99.90;;;;;;5059370;28;20218;-49
2022/01/02 08:19:44;;;;;;;9.23;6.00;;;9.60;99.90;;;;;;5062778;28;20199;-49
2022/01/02 08:22:12;;;;;;;8.38;6.25;;;9.40;99.90;;;;;;5061896;28;20226;-49
2022/01/02 08:24:39;;;;;;;9.73;7.32;;;9.60;99.90;;;;;;5062437;28;20557;-48
2022/01/02 08:27:07;;;;;;;6.10;5.50;;;10.00;99.90;;;;;;5058371;28;20623;-47
2022/01/02 08:29:35;;;;;;;7.20;6.35;;;10.20;99.90;;;;;;5054677;28;20472;-49
2022/01/02 08:32:05;;;;;;;6.07;5.45;;;10.30;99.90;;;;;;5060320;28;20478;-49
2022/01/02 08:34:32;;;;;;;8.95;6.22;;;10.50;99.90;;;;;;5058944;28;20196;-50
2022/01/02 08:36:59;;;;;;;7.05;5.80;;;10.50;99.90;;;;;;5061829;28;20197;-51
2022/01/02 08:39:26;;;;;;;7.22;6.53;;;10.60;99.90;;;;;;5061911;28;20200;-52
2022/01/02 08:41:54;;;;;;;6.90;6.15;;;10.70;99.90;;;;;;5061939;28;20715;-50
2022/01/02 08:44:21;;;;;;;6.88;5.15;;;10.70;99.90;;;;;;5062369;28;20209;-46
2022/01/02 08:46:50;;;;;;;8.80;6.05;;;10.90;99.90;;;;;;5061869;28;20515;-52
2022/01/02 08:49:18;;;;;;;7.15;5.05;;;11.00;99.90;;;;;;5056446;28;20232;-50
2022/01/02 08:51:45;;;;;;;6.43;4.32;;;10.80;99.90;;;;;;5062637;28;20222;-48
2022/01/02 08:54:13;;;;;;;5.47;4.03;;;10.80;99.90;;;;;;5063320;28;20436;-50
2022/01/02 08:56:40;;;;;;;5.57;3.88;;;10.80;99.90;;;;;;5057318;28;20199;-49
2022/01/02 08:59:07;;;;;;;3.90;3.50;;;11.00;99.90;;;;;;5056100;28;20520;-50
2022/01/02 09:01:35;;;;;;;4.05;3.75;;;11.20;99.90;;;;;;5053736;28;20209;-48
2022/01/02 09:04:02;;;;;;;4.85;3.55;;;11.20;99.90;;;;;;5055683;28;20240;-49
2022/01/02 09:06:29;;;;;;;4.57;4.13;;;11.20;99.90;;;;;;5055290;28;20225;-48
2022/01/02 09:08:56;;;;;;;4.50;3.50;;;11.30;99.90;;;;;;5056019;28;20563;-50
2022/01/02 09:11:24;;;;;;;8.82;4.32;;;11.40;99.90;;;;;;5065413;28;20195;-51
2022/01/02 09:13:51;;;;;;;11.32;4.65;;;11.30;99.90;;;;;;5062847;28;20202;-49
2022/01/02 09:16:19;;;;;;;4.65;3.38;;;11.40;99.90;;;;;;5054218;28;20202;-52
2022/01/02 09:18:46;;;;;;;4.55;3.55;;;11.50;99.90;;;;;;5053130;28;20199;-49
2022/01/02 09:21:13;;;;;;;5.20;3.67;;;11.80;99.90;;;;;;5054688;28;20402;-49
2022/01/02 09:23:40;;;;;;;5.25;4.75;;;11.80;99.90;;;;;;5052812;28;20272;-53
2022/01/02 09:26:07;;;;;;;6.55;4.43;;;11.90;99.90;;;;;;5053008;28;20509;-49
2022/01/02 09:28:34;;;;;;;6.30;4.72;;;11.90;99.90;;;;;;5053185;28;20203;-50
2022/01/02 09:31:01;;;;;;;5.75;4.78;;;11.90;99.90;;;;;;5054073;28;20538;-49
2022/01/02 09:33:29;;;;;;;4.95;4.20;;;11.50;99.90;;;;;;5055783;28;20437;-46
2022/01/02 09:35:56;;;;;;;7.18;5.28;;;11.60;99.90;;;;;;5056076;28;20214;-54
2022/01/02 09:38:23;;;;;;;11.30;7.20;;;11.60;99.90;;;;;;5050426;28;20206;-47
2022/01/02 09:40:50;;;;;;;7.72;4.35;;;11.70;99.90;;;;;;5049650;28;20206;-50
2022/01/02 09:43:18;;;;;;;9.30;3.97;;;11.60;99.90;;;;;;5056587;28;20283;-51
2022/01/02 09:45:47;;;;;;;4.43;4.03;;;11.60;99.90;;;;;;5061148;28;20281;-47
2022/01/02 09:48:15;;;;;;;4.57;3.95;;;11.60;99.90;;;;;;5056758;28;20199;-48
2022/01/02 09:50:43;;;;;;;6.68;4.22;;;11.70;99.90;;;;;;5061447;28;20223;-49
2022/01/02 09:53:10;;;;;;;9.07;4.38;;;11.70;99.90;;;;;;5061192;28;20225;-49
2022/01/02 09:55:38;;;;;;;6.13;4.78;;;11.70;99.90;;;;;;5052775;28;20648;-48
2022/01/02 09:58:10;;;;;;;3.92;3.15;;;12.20;99.90;;;;;;5060482;28;20206;-50
2022/01/02 10:00:40;;;;;;;3.85;3.45;;;12.30;99.90;;;;;;5057276;28;20199;-51
2022/01/02 10:03:09;;;;;;;6.88;3.97;;;12.60;99.90;;;;;;5060560;28;20237;-49
2022/01/02 10:05:54;;;;;;;5.55;3.75;;;12.70;99.90;;;;;;5060706;28;20212;-49
2022/01/02 10:08:33;;;;;;;4.63;3.28;;;12.80;99.90;;;;;;5060525;28;20203;-50
2022/01/02 10:11:03;;;;;;;2.75;2.50;;;12.90;99.90;;;;;;5060048;28;20218;-52
2022/01/02 10:13:40;;;;;;;5.65;3.55;;;12.90;99.90;;;;;;5060499;28;20224;-48
2022/01/02 10:16:21;;;;;;;5.03;4.13;;;13.00;99.90;;;;;;5060066;28;20548;-48
2022/01/02 10:18:51;;;;;;;3.20;2.85;;;13.30;99.90;;;;;;5060701;28;20390;-50
2022/01/02 10:21:28;;;;;;;3.92;3.60;;;13.20;99.90;;;;;;5060218;28;20196;-51
2022/01/02 10:24:21;;;;;;;4.07;3.78;;;13.00;99.90;;;;;;5054183;28;20203;-52
2022/01/02 10:27:08;;;;;;;5.72;4.32;;;13.00;99.90;;;;;;5053167;28;20208;-50
2022/01/02 10:29:42;;;;;;;3.83;3.45;;;12.90;99.90;;;;;;5053686;28;20227;-50
2022/01/02 10:32:35;;;;;;;5.88;4.00;;;12.80;99.90;;;;;;5053461;28;20215;-54
2022/01/02 10:35:23;;;;;;;4.80;3.42;;;12.80;99.90;;;;;;5055158;28;20195;-49
2022/01/02 10:37:53;;;;;;;3.80;3.30;;;12.90;99.90;;;;;;5058344;28;20228;-50
2022/01/02 10:40:36;;;;;;;4.57;2.60;;;12.80;99.90;;;;;;5060078;28;20199;-50
2022/01/02 10:43:09;;;;;;;3.30;2.50;;;13.00;99.90;;;;;;5060419;28;20226;-53
2022/01/02 10:45:39;;;;;;;3.83;2.65;;;13.10;99.90;;;;;;5060759;28;20245;-51
2022/01/02 10:48:11;;;;;;;3.53;3.22;;;13.50;99.90;;;;;;5063992;28;20200;-48
2022/01/02 10:50:57;;;;;;;5.28;3.58;;;13.40;99.90;;;;;;5055321;28;20215;-50
2022/01/02 10:53:24;;;;;;;5.07;3.78;;;13.50;99.90;;;;;;5070057;28;20227;-48
2022/01/02 10:55:52;;;;;;;4.32;3.70;;;13.40;99.90;;;;;;5055605;28;20223;-49
2022/01/02 10:58:19;;;;;;;3.72;3.30;;;13.30;99.90;;;;;;5055412;28;20451;-47
2022/01/02 11:00:47;;;;;;;3.30;3.05;;;13.30;99.90;;;;;;5058077;28;20207;-50
2022/01/02 11:03:16;;;;;;;4.45;2.95;;;13.30;99.90;;;;;;5055636;28;20273;-48
2022/01/02 11:05:47;;;;;;;4.30;2.70;;;13.30;99.90;;;;;;5061059;28;20201;-53
2022/01/02 11:08:15;;;;;;;3.95;3.08;;;13.40;99.90;;;;;;5063955;28;20203;-49
2022/01/02 11:10:43;;;;;;;3.35;2.53;;;13.60;99.90;;;;;;5061658;28;20258;-52
2022/01/02 11:13:12;;;;;;;3.53;3.20;;;13.50;99.90;;;;;;5062236;28;20258;-51
2022/01/02 11:15:40;;;;;;;4.22;2.90;;;13.40;99.90;;;;;;5063730;28;20237;-49
2022/01/02 11:18:07;;;;;;;2.92;2.55;;;13.40;99.90;;;;;;5062999;28;20266;-47
2022/01/02 11:20:34;;;;;;;5.15;3.17;;;13.50;99.90;;;;;;5061861;28;20245;-49
2022/01/02 11:23:42;;;;;;;3.03;2.75;;;13.50;99.90;;;;;;5062948;28;20219;-53
2022/01/02 11:26:29;;;;;;;2.45;2.28;;;13.70;99.90;;;;;;4982054;28;20198;-50
2022/01/02 11:29:13;;;;;;;5.15;3.15;;;13.80;99.90;;;;;;4982129;28;20544;-51
2022/01/02 11:31:46;;;;;;;3.75;3.38;;;13.40;99.90;;;;;;5043628;28;20223;-48
2022/01/02 11:34:27;;;;;;;2.60;2.38;;;13.30;99.90;;;;;;5063210;28;20206;-50
2022/01/02 11:37:13;;;;;;;4.15;3.75;;;13.30;99.90;;;;;;5063636;28;20203;-49
2022/01/02 11:39:57;;;;;;;3.40;3.05;;;13.40;99.90;;;;;;5064317;28;20203;-51
2022/01/02 11:42:38;;;;;;;3.85;3.50;;;13.30;99.90;;;;;;5064268;28;20215;-47
2022/01/02 11:45:10;;;;;;;3.15;2.85;;;13.30;99.90;;;;;;5057764;28;20280;-53
2022/01/02 11:47:47;;;;;;;3.78;3.35;;;13.20;99.90;;;;;;5057491;28;20401;-51
2022/01/02 11:50:39;;;;;;;5.47;3.10;;;13.20;99.90;;;;;;5059391;28;20447;-47
2022/01/02 11:53:09;;;;;;;5.75;4.40;;;13.10;99.90;;;;;;5052263;28;20227;-51
2022/01/02 11:55:42;;;;;;;4.22;3.80;;;13.30;99.90;;;;;;5055565;28;20211;-49
2022/01/02 11:58:40;;;;;;;5.75;3.25;;;13.40;99.90;;;;;;5051475;28;20199;-48
2022/01/02 12:01:09;;;;;;;5.25;3.10;;;13.40;99.90;;;;;;5056331;28;20237;-48
2022/01/02 12:03:50;;;;;;;4.60;3.97;;;13.20;99.90;;;;;;5054930;28;20255;-53
2022/01/02 12:06:34;;;;;;;4.15;3.10;;;13.30;99.90;;;;;;5056788;28;20191;-49
2022/01/02 12:09:25;;;;;;;10.15;4.40;;;13.40;99.90;;;;;;5054410;28;20217;-47
2022/01/02 12:12:00;;;;;;;4.50;3.35;;;13.50;99.90;;;;;;5060619;28;20294;-51
2022/01/02 12:14:28;;;;;;;5.13;3.50;;;13.60;99.90;;;;;;5061307;28;20199;-47
2022/01/02 12:17:12;;;;;;;5.68;3.85;;;13.50;99.90;;;;;;5063123;28;20208;-51
2022/01/02 12:19:58;;;;;;;5.55;3.35;;;13.30;99.90;;;;;;5062468;28;20528;-49
2022/01/02 12:22:43;;;;;;;4.53;3.45;;;13.30;99.90;;;;;;5061486;28;20222;-50
2022/01/02 12:25:12;;;;;;;5.80;3.60;;;13.30;99.90;;;;;;5058163;28;20203;-50
2022/01/02 12:27:52;;;;;;;4.78;3.05;;;13.30;99.90;;;;;;5061435;28;20274;-52
2022/01/02 12:30:20;;;;;;;3.50;2.75;;;13.30;99.90;;;;;;5062406;28;20226;-48
2022/01/02 12:32:47;;;;;;;4.88;2.97;;;13.50;99.90;;;;;;5075842;28;20253;-54
2022/01/02 12:35:15;;;;;;;6.75;3.15;;;13.50;99.90;;;;;;5066440;28;20196;-52
2022/01/02 12:37:43;;;;;;;3.25;2.70;;;13.40;99.90;;;;;;5061123;28;20187;-54
2022/01/02 12:40:15;;;;;;;4.15;3.45;;;13.50;99.90;;;;;;5060807;28;20200;-50
2022/01/02 12:42:44;;;;;;;7.25;2.72;;;13.50;99.90;;;;;;5039693;28;20281;-51
2022/01/02 12:45:11;;;;;;;5.75;3.80;;;13.70;99.90;;;;;;5040486;28;20254;-51
2022/01/02 12:47:52;;;;;;;4.07;2.90;;;13.80;99.90;;;;;;5040682;28;20207;-48
2022/01/02 12:50:24;;;;;;;6.57;4.10;;;13.70;99.90;;;;;;5040470;28;20226;-49
2022/01/02 12:52:53;;;;;;;4.75;3.05;;;13.70;99.90;;;;;;5040984;28;20238;-52
2022/01/02 12:55:21;;;;;;;3.53;3.22;;;13.70;99.90;;;;;;5041224;28;20196;-48
2022/01/02 12:57:48;;;;;;;4.40;3.45;;;13.90;99.90;;;;;;5041656;28;20200;-53
2022/01/02 13:00:15;;;;;;;3.65;3.35;;;13.90;99.90;;;;;;5041621;28;20208;-51
2022/01/02 13:02:44;;;;;;;5.28;4.15;;;14.00;99.90;;;;;;5041328;28;20220;-52
2022/01/02 13:05:12;;;;;;;5.95;3.83;;;13.80;99.90;;;;;;5041412;28;20200;-47
2022/01/02 13:07:40;;;;;;;5.85;3.72;;;13.70;99.90;;;;;;5041134;28;20257;-48
2022/01/02 13:10:12;;;;;;;7.10;4.30;;;13.70;99.90;;;;;;5041029;28;20223;-52